createdAt,value
2023-04-15T00:00:59.814Z,2.22
2023-04-15T00:03:27.403Z,2.53
2023-04-15T00:05:54.656Z,2.97
2023-04-15T00:08:21.707Z,2.95
2023-04-15T00:10:49.235Z,2.47
2023-04-15T00:13:16.540Z,2.70
2023-04-15T00:15:43.405Z,2.53
2023-04-15T00:18:10.379Z,3.10
2023-04-15T00:20:37.584Z,3.15
2023-04-15T00:23:04.632Z,3.15
2023-04-15T00:25:31.819Z,2.55
2023-04-15T00:27:58.754Z,2.72
2023-04-15T00:30:26.552Z,3.15
2023-04-15T00:32:53.547Z,3.13
2023-04-15T00:35:20.788Z,3.30
2023-04-15T00:37:47.591Z,3.78
2023-04-15T00:40:18.889Z,3.08
2023-04-15T00:42:45.906Z,3.88
2023-04-15T00:45:13.317Z,3.50
2023-04-15T00:47:42.887Z,3.28
2023-04-15T00:50:10.900Z,3.28
2023-04-15T00:52:37.735Z,3.35
2023-04-15T00:55:05.583Z,2.50
2023-04-15T00:57:33.127Z,3.75
2023-04-15T01:00:01.041Z,3.20
2023-04-15T01:02:28.162Z,3.03
2023-04-15T01:04:56.751Z,3.40
2023-04-15T01:07:23.596Z,3.47
2023-04-15T01:09:50.756Z,3.40
2023-04-15T01:12:20.457Z,2.78
2023-04-15T01:14:47.197Z,2.45
2023-04-15T01:17:14.424Z,3.03
2023-04-15T01:19:41.721Z,3.00
2023-04-15T01:22:09.199Z,2.85
2023-04-15T01:24:37.573Z,2.75
2023-04-15T01:27:05.561Z,2.80
2023-04-15T01:29:34.697Z,3.63
2023-04-15T01:32:01.424Z,3.95
2023-04-15T01:34:28.399Z,4.30
2023-04-15T01:36:55.157Z,5.13
2023-04-15T01:39:22.614Z,3.92
2023-04-15T01:41:49.607Z,3.80
2023-04-15T01:44:16.874Z,3.10
2023-04-15T01:46:43.790Z,3.58
2023-04-15T01:49:10.767Z,3.70
2023-04-15T01:51:37.876Z,4.00
2023-04-15T01:54:04.551Z,3.40
2023-04-15T01:56:31.498Z,3.00
2023-04-15T01:58:58.845Z,4.25
2023-04-15T02:01:26.089Z,3.22
2023-04-15T02:03:53.931Z,3.97
2023-04-15T02:06:21.045Z,3.47
2023-04-15T02:08:47.961Z,3.92
2023-04-15T02:11:15.444Z,3.13
2023-04-15T02:13:45.238Z,3.35
2023-04-15T02:18:46.878Z,2.92
2023-04-15T02:21:14.170Z,3.33
2023-04-15T02:23:41.040Z,3.20
2023-04-15T02:26:08.220Z,3.03
2023-04-15T02:28:37.272Z,3.40
2023-04-15T02:31:08.163Z,3.13
2023-04-15T02:33:35.675Z,3.47
2023-04-15T02:36:02.722Z,3.45
2023-04-15T02:38:30.969Z,4.28
2023-04-15T02:40:58.156Z,3.65
2023-04-15T02:43:25.211Z,3.70
2023-04-15T02:45:52.308Z,3.97
2023-04-15T02:48:20.323Z,3.85
2023-04-15T02:50:48.011Z,4.25
2023-04-15T02:53:14.983Z,4.05
2023-04-15T02:55:42.883Z,4.15
2023-04-15T02:58:09.882Z,3.95
2023-04-15T03:00:36.566Z,4.18
2023-04-15T03:03:04.969Z,4.43
2023-04-15T03:05:32.529Z,4.15
2023-04-15T03:08:00.592Z,4.43
2023-04-15T03:10:27.799Z,4.30
2023-04-15T03:12:54.548Z,4.68
2023-04-15T03:15:21.272Z,3.88
2023-04-15T03:17:49.733Z,4.97
2023-04-15T03:20:16.967Z,4.05
2023-04-15T03:22:44.058Z,4.05
2023-04-15T03:25:11.894Z,3.72
2023-04-15T03:27:39.228Z,3.78
2023-04-15T03:30:07.617Z,4.07
2023-04-15T03:32:34.908Z,4.95
2023-04-15T03:35:01.708Z,4.97
2023-04-15T03:37:28.836Z,4.05
2023-04-15T03:39:55.613Z,3.95
2023-04-15T03:42:22.553Z,4.03
2023-04-15T03:44:49.671Z,3.88
2023-04-15T03:47:16.605Z,4.43
2023-04-15T03:49:43.737Z,4.15
2023-04-15T03:52:10.779Z,3.83
2023-04-15T03:54:37.668Z,4.47
2023-04-15T03:57:04.721Z,5.07
2023-04-15T03:59:31.769Z,4.65
2023-04-15T04:01:59.015Z,5.63
2023-04-15T04:04:25.941Z,5.40
2023-04-15T04:06:52.895Z,5.93
2023-04-15T04:09:19.559Z,6.85
2023-04-15T04:11:46.694Z,6.68
2023-04-15T04:14:13.649Z,6.55
2023-04-15T04:16:41.089Z,6.22
2023-04-15T04:19:08.449Z,6.55
2023-04-15T04:21:36.464Z,7.25
2023-04-15T04:24:03.412Z,9.55
2023-04-15T04:26:30.379Z,9.13
2023-04-15T04:28:57.150Z,11.55
2023-04-15T04:31:23.872Z,12.35
2023-04-15T04:33:51.227Z,13.55
2023-04-15T04:36:18.445Z,11.13
2023-04-15T04:38:45.372Z,9.70
2023-04-15T04:41:12.414Z,9.50
2023-04-15T04:43:39.084Z,9.65
2023-04-15T04:46:06.254Z,9.32
2023-04-15T04:48:33.322Z,9.05
2023-04-15T04:51:00.415Z,9.88
2023-04-15T04:53:28.035Z,8.57
2023-04-15T04:55:54.918Z,8.63
2023-04-15T04:58:21.811Z,8.95
2023-04-15T05:00:48.543Z,8.30
2023-04-15T05:03:15.683Z,8.00
2023-04-15T05:05:42.467Z,7.45
2023-04-15T05:08:09.564Z,7.80
2023-04-15T05:10:36.632Z,8.18
2023-04-15T05:13:03.802Z,7.80
2023-04-15T05:15:30.733Z,8.48
2023-04-15T05:17:58.693Z,8.45
2023-04-15T05:20:25.904Z,7.40
2023-04-15T05:22:55.598Z,8.43
2023-04-15T05:25:22.597Z,7.25
2023-04-15T05:27:49.659Z,7.95
2023-04-15T05:30:16.753Z,6.57
2023-04-15T05:32:43.899Z,7.05
2023-04-15T05:35:12.339Z,7.13
2023-04-15T05:37:39.021Z,6.75
2023-04-15T05:40:06.546Z,6.78
2023-04-15T05:42:35.567Z,4.97
2023-04-15T05:45:05.380Z,4.80
2023-04-15T05:49:59.196Z,4.35
2023-04-15T05:52:27.352Z,4.18
2023-04-15T05:54:54.106Z,4.55
2023-04-15T05:57:21.202Z,5.65
2023-04-15T05:59:49.047Z,5.88
2023-04-15T06:02:16.342Z,4.70
2023-04-15T06:04:43.815Z,5.60
2023-04-15T06:07:12.039Z,5.45
2023-04-15T06:09:38.736Z,5.22
2023-04-15T06:12:06.853Z,5.88
2023-04-15T06:14:33.671Z,4.88
2023-04-15T06:17:00.703Z,5.93
2023-04-15T06:19:27.762Z,5.68
2023-04-15T06:21:54.664Z,5.93
2023-04-15T06:24:21.527Z,6.07
2023-04-15T06:26:48.487Z,5.75
2023-04-15T06:29:15.773Z,6.10
2023-04-15T06:31:42.680Z,6.72
2023-04-15T06:34:09.639Z,5.80
2023-04-15T06:36:36.711Z,6.40
2023-04-15T06:39:03.984Z,7.45
2023-04-15T06:41:31.288Z,6.75
2023-04-15T06:43:58.324Z,6.28
2023-04-15T06:46:25.463Z,5.60
2023-04-15T06:48:52.522Z,6.78
2023-04-15T06:51:19.683Z,6.25
2023-04-15T06:53:46.503Z,6.82
2023-04-15T06:56:13.470Z,5.68
2023-04-15T06:58:40.607Z,6.50
2023-04-15T07:01:07.648Z,6.05
2023-04-15T07:03:35.200Z,6.28
2023-04-15T07:06:06.298Z,7.03
2023-04-15T07:08:33.887Z,6.47
2023-04-15T07:11:01.523Z,5.35
2023-04-15T07:13:31.532Z,5.53
2023-04-15T07:15:58.898Z,5.90
2023-04-15T07:18:26.074Z,5.47
2023-04-15T07:20:53.012Z,4.97
2023-04-15T07:23:20.028Z,6.03
2023-04-15T07:25:47.592Z,5.20
2023-04-15T07:28:14.579Z,6.00
2023-04-15T07:30:41.531Z,5.60
2023-04-15T07:33:08.837Z,4.97
2023-04-15T07:35:35.713Z,5.25
2023-04-15T07:38:03.725Z,4.43
2023-04-15T07:40:30.635Z,4.60
2023-04-15T07:42:58.598Z,5.35
2023-04-15T07:45:25.502Z,5.25
2023-04-15T07:47:52.626Z,4.82
2023-04-15T07:50:19.809Z,4.35
2023-04-15T07:52:46.951Z,5.20
2023-04-15T07:55:13.780Z,4.75
2023-04-15T07:57:40.854Z,5.20
2023-04-15T08:00:08.176Z,5.32
2023-04-15T08:02:36.945Z,4.68
2023-04-15T08:05:05.713Z,5.43
2023-04-15T08:07:32.714Z,4.75
2023-04-15T08:09:59.720Z,5.63
2023-04-15T08:12:27.226Z,4.35
2023-04-15T08:14:56.121Z,3.95
2023-04-15T08:17:23.170Z,4.00
2023-04-15T08:19:49.940Z,3.25
2023-04-15T08:22:18.191Z,3.67
2023-04-15T08:24:45.829Z,3.85
2023-04-15T08:27:12.710Z,4.07
2023-04-15T08:29:40.874Z,4.50
2023-04-15T08:32:07.889Z,4.07
2023-04-15T08:34:35.037Z,4.03
2023-04-15T08:37:02.197Z,4.80
2023-04-15T08:39:29.197Z,5.22
2023-04-15T08:41:59.548Z,5.10
2023-04-15T08:44:29.259Z,5.70
2023-04-15T08:49:27.010Z,4.93
2023-04-15T08:51:55.128Z,5.18
2023-04-15T08:54:22.743Z,4.47
2023-04-15T08:56:50.441Z,4.93
2023-04-15T08:59:18.240Z,5.13
2023-04-15T09:01:46.473Z,4.90
2023-04-15T09:04:14.328Z,4.63
2023-04-15T09:06:41.562Z,5.45
2023-04-15T09:09:08.610Z,4.97
2023-04-15T09:11:36.265Z,6.20
2023-04-15T09:14:06.266Z,6.32
2023-04-15T09:16:56.727Z,5.65
2023-04-15T09:19:25.005Z,6.20
2023-04-15T09:21:57.301Z,6.63
2023-04-15T09:24:33.600Z,6.03
2023-04-15T09:27:00.607Z,6.25
2023-04-15T09:29:27.896Z,6.65
2023-04-15T09:31:55.195Z,7.05
2023-04-15T09:34:34.915Z,7.32
2023-04-15T09:39:50.083Z,6.65
2023-04-15T09:42:24.202Z,7.13
2023-04-15T09:44:53.073Z,6.38
2023-04-15T09:47:32.840Z,6.63
2023-04-15T09:50:01.673Z,6.95
2023-04-15T09:52:29.120Z,6.40
2023-04-15T09:54:59.371Z,6.70
2023-04-15T09:57:33.476Z,7.15
2023-04-15T10:00:00.286Z,6.60
2023-04-15T10:02:28.320Z,6.20
2023-04-15T10:04:55.689Z,6.43
2023-04-15T10:07:23.479Z,6.45
2023-04-15T10:09:50.376Z,6.55
2023-04-15T10:12:18.620Z,7.13
2023-04-15T10:14:52.637Z,6.50
2023-04-15T10:17:22.564Z,6.40
2023-04-15T10:19:52.951Z,6.15
2023-04-15T10:22:20.442Z,6.47
2023-04-15T10:24:48.723Z,6.38
2023-04-15T10:27:17.829Z,6.78
2023-04-15T10:29:45.520Z,5.53
2023-04-15T10:32:13.648Z,6.45
2023-04-15T10:34:40.860Z,5.80
2023-04-15T10:37:11.081Z,5.75
2023-04-15T10:39:38.080Z,4.82
2023-04-15T10:42:19.477Z,4.88
2023-04-15T10:44:51.614Z,3.70
2023-04-15T10:47:21.659Z,7.35
2023-04-15T10:49:51.408Z,3.30
2023-04-15T10:52:24.230Z,3.70
2023-04-15T10:55:22.322Z,4.20
2023-04-15T10:57:58.125Z,3.90
2023-04-15T11:00:26.809Z,3.97
2023-04-15T11:02:56.917Z,4.23
2023-04-15T11:05:53.459Z,3.80
2023-04-15T11:08:40.903Z,3.78
2023-04-15T11:11:09.077Z,3.47
2023-04-15T11:13:36.139Z,2.63
2023-04-15T11:16:03.716Z,2.90
2023-04-15T11:18:33.183Z,2.50
2023-04-15T11:21:08.228Z,2.28
2023-04-15T11:23:51.658Z,3.10
2023-04-15T11:26:18.907Z,2.92
2023-04-15T11:28:47.168Z,4.05
2023-04-15T11:31:17.699Z,3.95
2023-04-15T11:33:59.196Z,3.38
2023-04-15T11:36:27.963Z,2.53
2023-04-15T11:38:55.118Z,2.20
2023-04-15T11:41:23.246Z,2.03
2023-04-15T11:43:51.427Z,2.60
2023-04-15T11:46:18.856Z,3.05
2023-04-15T11:48:47.008Z,2.00
2023-04-15T11:51:14.356Z,2.00
2023-04-15T11:53:45.930Z,2.55
2023-04-15T11:56:24.073Z,2.55
2023-04-15T11:58:57.060Z,3.58
2023-04-15T12:01:39.824Z,2.00
2023-04-15T12:04:23.505Z,2.15
2023-04-15T12:06:51.961Z,1.75
2023-04-15T12:09:20.216Z,1.75
2023-04-15T12:11:51.293Z,1.70
2023-04-15T12:14:28.996Z,2.28
2023-04-15T12:16:59.923Z,1.80
2023-04-15T12:19:37.709Z,2.10
2023-04-15T12:22:14.115Z,1.80
2023-04-15T12:24:49.504Z,1.90
2023-04-15T12:27:17.342Z,1.90
2023-04-15T12:29:44.508Z,1.98
2023-04-15T12:32:14.573Z,1.98
2023-04-15T12:34:44.864Z,2.25
2023-04-15T12:37:13.679Z,2.22
2023-04-15T12:39:42.613Z,2.50
2023-04-15T12:42:10.227Z,1.95
2023-04-15T12:44:38.229Z,2.13
2023-04-15T12:47:05.502Z,2.40
2023-04-15T12:49:32.786Z,1.60
2023-04-15T12:52:01.178Z,2.17
2023-04-15T12:54:29.035Z,1.83
2023-04-15T12:56:56.605Z,1.55
2023-04-15T12:59:24.065Z,2.03
2023-04-15T13:01:52.383Z,2.05
2023-04-15T13:04:20.713Z,1.70
2023-04-15T13:06:47.965Z,1.90
2023-04-15T13:09:15.006Z,1.83
2023-04-15T13:11:42.963Z,1.67
2023-04-15T13:14:12.843Z,1.80
2023-04-15T13:16:40.285Z,2.05
2023-04-15T13:19:07.326Z,1.40
2023-04-15T13:21:35.689Z,2.00
2023-04-15T13:24:04.547Z,1.88
2023-04-15T13:26:32.013Z,2.03
2023-04-15T13:28:59.131Z,1.98
2023-04-15T13:31:26.245Z,2.40
2023-04-15T13:33:53.409Z,2.17
2023-04-15T13:36:20.581Z,2.00
2023-04-15T13:38:50.451Z,2.45
2023-04-15T13:41:20.010Z,2.60
2023-04-15T13:43:47.147Z,2.30
2023-04-15T13:46:14.008Z,2.30
2023-04-15T13:48:40.790Z,2.13
2023-04-15T13:51:07.662Z,1.70
2023-04-15T13:53:39.217Z,2.47
2023-04-15T13:56:10.470Z,2.50
2023-04-15T13:58:38.312Z,2.45
2023-04-15T14:01:06.932Z,2.47
2023-04-15T14:03:36.815Z,3.10
2023-04-15T14:06:04.835Z,4.18
2023-04-15T14:08:31.899Z,3.33
2023-04-15T14:10:58.733Z,2.50
2023-04-15T14:13:25.622Z,2.55
2023-04-15T14:15:52.366Z,1.80
2023-04-15T14:18:19.062Z,2.03
2023-04-15T14:20:45.788Z,2.10
2023-04-15T14:23:12.494Z,2.10
2023-04-15T14:25:39.404Z,1.95
2023-04-15T14:28:06.282Z,2.60
2023-04-15T14:30:33.168Z,2.10
2023-04-15T14:33:00.066Z,2.03
2023-04-15T14:35:29.672Z,2.42
2023-04-15T14:37:56.563Z,2.25
2023-04-15T14:40:23.329Z,2.85
2023-04-15T14:42:50.173Z,2.47
2023-04-15T14:45:17.551Z,1.40
2023-04-15T14:47:44.706Z,1.92
2023-04-15T14:50:11.467Z,1.33
2023-04-15T14:52:40.873Z,1.15
2023-04-15T14:55:10.299Z,1.30
2023-04-15T14:57:41.269Z,1.30
2023-04-15T15:02:47.436Z,1.55
2023-04-15T15:05:14.511Z,1.90
2023-04-15T15:07:41.326Z,1.80
2023-04-15T15:10:08.275Z,1.48
2023-04-15T15:12:35.037Z,1.92
2023-04-15T15:15:06.944Z,1.83
2023-04-15T15:17:39.447Z,1.83
2023-04-15T15:20:06.646Z,1.90
2023-04-15T15:22:33.262Z,1.50
2023-04-15T15:25:00.846Z,1.60
2023-04-15T15:27:27.566Z,2.63
2023-04-15T15:29:56.576Z,2.30
2023-04-15T15:32:23.380Z,2.40
2023-04-15T15:34:52.547Z,3.63
2023-04-15T15:37:19.185Z,3.08
2023-04-15T15:39:45.934Z,2.33
2023-04-15T15:42:12.683Z,2.22
2023-04-15T15:44:39.321Z,2.42
2023-04-15T15:47:06.074Z,2.70
2023-04-15T15:49:32.896Z,2.70
2023-04-15T15:51:59.943Z,2.63
2023-04-15T15:54:27.634Z,1.85
2023-04-15T15:56:54.321Z,1.83
2023-04-15T15:59:20.965Z,2.05
2023-04-15T16:01:48.217Z,2.13
2023-04-15T16:04:15.181Z,2.90
2023-04-15T16:06:46.662Z,2.10
2023-04-15T16:09:14.455Z,1.17
2023-04-15T16:11:41.533Z,1.38
2023-04-15T16:14:08.206Z,1.55
2023-04-15T16:16:35.109Z,1.88
2023-04-15T16:19:01.768Z,1.30
2023-04-15T16:21:28.684Z,1.50
2023-04-15T16:23:55.447Z,1.67
2023-04-15T16:26:24.214Z,1.63
2023-04-15T16:28:50.911Z,1.27
2023-04-15T16:31:17.665Z,1.63
2023-04-15T16:33:44.327Z,1.45
2023-04-15T16:36:11.218Z,1.77
2023-04-15T16:38:38.006Z,1.30
2023-04-15T16:41:04.730Z,1.70
2023-04-15T16:43:32.400Z,1.90
2023-04-15T16:45:59.169Z,1.95
2023-04-15T16:48:27.018Z,1.65
2023-04-15T16:50:53.671Z,1.20
2023-04-15T16:53:20.446Z,2.03
2023-04-15T16:55:47.125Z,1.92
2023-04-15T16:58:13.763Z,1.50
2023-04-15T17:00:40.533Z,1.75
2023-04-15T17:03:08.693Z,1.30
2023-04-15T17:05:35.745Z,2.03
2023-04-15T17:08:02.413Z,2.05
2023-04-15T17:10:30.339Z,1.20
2023-04-15T17:12:58.117Z,0.82
2023-04-15T17:15:25.282Z,1.75
2023-04-15T17:17:52.122Z,1.10
2023-04-15T17:20:18.975Z,1.20
2023-04-15T17:22:45.900Z,1.10
2023-04-15T17:25:14.070Z,0.68
2023-04-15T17:27:40.979Z,1.35
2023-04-15T17:30:08.489Z,1.55
2023-04-15T17:32:35.546Z,1.35
2023-04-15T17:35:05.910Z,1.60
2023-04-15T17:37:33.891Z,1.65
2023-04-15T17:40:00.610Z,1.30
2023-04-15T17:42:27.331Z,1.67
2023-04-15T17:44:54.039Z,1.67
2023-04-15T17:47:21.698Z,2.45
2023-04-15T17:49:48.395Z,1.65
2023-04-15T17:52:15.057Z,1.40
2023-04-15T17:54:41.686Z,1.50
2023-04-15T17:57:09.564Z,1.42
2023-04-15T17:59:37.311Z,1.42
2023-04-15T18:02:05.067Z,1.80
2023-04-15T18:04:31.842Z,1.90
2023-04-15T18:06:58.667Z,1.95
2023-04-15T18:09:25.339Z,2.10
2023-04-15T18:11:52.016Z,1.73
2023-04-15T18:14:31.202Z,1.70
2023-04-15T18:17:01.780Z,2.40
2023-04-15T18:19:29.352Z,2.70
2023-04-15T18:21:56.042Z,2.30
2023-04-15T18:24:22.825Z,1.98
2023-04-15T18:26:49.596Z,2.42
2023-04-15T18:29:16.471Z,3.03
2023-04-15T18:31:44.273Z,2.10
2023-04-15T18:34:10.971Z,2.20
2023-04-15T18:36:37.743Z,3.15
2023-04-15T18:39:05.171Z,2.35
2023-04-15T18:41:32.083Z,2.83
2023-04-15T18:43:58.787Z,2.65
2023-04-15T18:46:25.543Z,2.85
2023-04-15T18:48:52.236Z,1.98
2023-04-15T18:51:19.074Z,1.90
2023-04-15T18:53:45.855Z,1.55
2023-04-15T18:56:12.571Z,2.00
2023-04-15T18:59:09.401Z,1.73
2023-04-15T19:01:26.415Z,2.78
2023-04-15T19:03:54.196Z,2.47
2023-04-15T19:06:22.359Z,1.60
2023-04-15T19:08:49.035Z,2.20
2023-04-15T19:11:15.841Z,1.73
2023-04-15T19:13:43.513Z,2.40
2023-04-15T19:16:11.302Z,2.40
2023-04-15T19:18:37.954Z,2.80
2023-04-15T19:21:05.843Z,3.20
2023-04-15T19:23:32.607Z,2.42
2023-04-15T19:25:59.247Z,3.63
2023-04-15T19:28:28.165Z,3.20
2023-04-15T19:30:55.087Z,3.53
2023-04-15T19:33:22.822Z,3.95
2023-04-15T19:35:52.342Z,3.90
2023-04-15T19:38:20.087Z,3.75
2023-04-15T19:40:46.789Z,3.80
2023-04-15T19:43:13.468Z,3.85
2023-04-15T19:45:40.129Z,4.28
2023-04-15T19:48:07.884Z,5.07
2023-04-15T19:50:34.762Z,5.93
2023-04-15T19:53:01.425Z,4.82
2023-04-15T19:55:28.095Z,4.70
2023-04-15T19:57:54.774Z,4.32
2023-04-15T20:00:21.724Z,5.30
2023-04-15T20:02:48.705Z,4.55
2023-04-15T20:05:16.565Z,4.97
2023-04-15T20:07:45.120Z,5.28
2023-04-15T20:10:13.222Z,4.80
2023-04-15T20:12:51.689Z,5.50
2023-04-15T20:15:23.496Z,5.72
2023-04-15T20:17:51.571Z,6.18
2023-04-15T20:20:18.537Z,7.25
2023-04-15T20:22:45.340Z,6.90
2023-04-15T20:25:12.082Z,6.32
2023-04-15T20:27:39.764Z,6.97
2023-04-15T20:30:07.385Z,6.80
2023-04-15T20:32:35.705Z,7.55
2023-04-15T20:35:04.187Z,7.63
2023-04-15T20:37:33.115Z,6.82
2023-04-15T20:40:01.215Z,8.33
2023-04-15T20:42:28.062Z,7.85
2023-04-15T20:44:54.813Z,8.02
2023-04-15T20:47:21.569Z,9.05
2023-04-15T20:49:48.426Z,8.55
2023-04-15T20:52:15.068Z,7.90
2023-04-15T20:54:41.704Z,7.97
2023-04-15T20:57:08.399Z,8.52
2023-04-15T20:59:35.919Z,9.25
2023-04-15T21:02:02.755Z,8.50
2023-04-15T21:04:29.481Z,7.78
2023-04-15T21:06:56.281Z,9.20
2023-04-15T21:09:24.775Z,7.85
2023-04-15T21:14:20.994Z,8.05
2023-04-15T21:16:47.723Z,8.35
2023-04-15T21:19:14.541Z,8.15
2023-04-15T21:21:41.350Z,7.93
2023-04-15T21:24:08.090Z,8.00
2023-04-15T21:26:36.077Z,8.02
2023-04-15T21:29:03.176Z,7.25
2023-04-15T21:31:30.413Z,10.15
2023-04-15T21:33:57.102Z,7.20
2023-04-15T21:36:23.778Z,8.23
2023-04-15T21:38:50.614Z,8.85
2023-04-15T21:41:17.313Z,7.97
2023-04-15T21:43:44.056Z,7.82
2023-04-15T21:46:24.430Z,7.55
2023-04-15T21:48:55.645Z,7.88
2023-04-15T21:51:23.320Z,7.35
2023-04-15T21:53:52.490Z,6.45
2023-04-15T21:56:22.592Z,8.93
2023-04-15T21:58:51.050Z,6.55
2023-04-15T22:01:18.756Z,6.35
2023-04-15T22:03:45.942Z,6.72
2023-04-15T22:06:13.667Z,6.47
2023-04-15T22:08:55.373Z,8.07
2023-04-15T22:11:29.614Z,7.45
2023-04-15T22:13:57.249Z,6.90
2023-04-15T22:16:28.307Z,8.48
2023-04-15T22:18:56.461Z,8.45
2023-04-15T22:21:24.238Z,7.15
2023-04-15T22:23:52.853Z,7.63
2023-04-15T22:26:39.606Z,11.13
2023-04-15T22:29:08.330Z,7.85
2023-04-15T22:31:35.264Z,7.65
2023-04-15T22:34:01.938Z,8.32
2023-04-15T22:36:31.087Z,7.72
2023-04-15T22:38:58.732Z,8.82
2023-04-15T22:41:25.443Z,7.70
2023-04-15T22:43:53.074Z,8.43
2023-04-15T22:46:20.854Z,7.82
2023-04-15T22:48:48.534Z,8.38
2023-04-15T22:51:21.938Z,7.95
2023-04-15T22:53:51.608Z,7.75
2023-04-15T22:56:20.726Z,7.43
2023-04-15T22:58:47.958Z,7.07
2023-04-15T23:01:18.888Z,6.82
2023-04-15T23:03:56.427Z,7.15
2023-04-15T23:06:24.993Z,7.10
2023-04-15T23:08:52.182Z,5.95
2023-04-15T23:11:18.841Z,7.05
2023-04-15T23:13:45.639Z,5.40
2023-04-15T23:16:12.498Z,5.70
2023-04-15T23:18:39.161Z,4.55
2023-04-15T23:21:05.932Z,5.50
2023-04-15T23:23:32.572Z,5.25
2023-04-15T23:25:59.442Z,5.10
2023-04-15T23:28:26.136Z,4.68
2023-04-15T23:30:52.791Z,4.45
2023-04-15T23:33:19.423Z,4.78
2023-04-15T23:35:46.468Z,4.88
2023-04-15T23:38:14.116Z,4.85
2023-04-15T23:40:40.936Z,5.18
2023-04-15T23:43:09.588Z,3.72
2023-04-15T23:45:36.251Z,3.40
2023-04-15T23:48:03.156Z,4.25
2023-04-15T23:50:29.929Z,4.72
2023-04-15T23:52:57.585Z,6.05
2023-04-15T23:55:25.447Z,4.05
2023-04-15T23:57:52.126Z,4.50
